Dati Storici

Data ora Umidita' aria (%) Temperatura aria (°C) Rad globale (W/m²) Gonioanemometro (°) Tacoanemometro (m/s) Pioggia (mm)
07-06-2020 16:50 97.6 % 18.656 -62.658 2.282 0 0
07-06-2020 16:40 97.6 % 18.241 -40.819 0.618 0 0
07-06-2020 16:30 97.6 % 18.223 -75.822 2.006 0 0
07-06-2020 16:20 97.6 % 18.27 -81.485 4.757 0 0
07-06-2020 16:10 97.7 % 18.163 -75.487 1.666 0 0
07-06-2020 16:00 97.7 % 18.056 -80.041 1.624 0 0
07-06-2020 15:50 97.7 % 18.392 -78.184 3.015 0 0
07-06-2020 15:40 97.8 % 20.53 -62.341 2.655 0 0
07-06-2020 15:30 97.8 % 20.508 -75.54 0.835 0 0
07-06-2020 15:20 97.8 % 20.115 -74.36 0.719 0 0
07-06-2020 15:10 97.8 % 19.846 -74.216 2.491 0 0
07-06-2020 15:00 97.8 % 19.342 -80.953 0.657 0 0
07-06-2020 14:50 97.7 % 18.925 -77.075 0.354 0 0
07-06-2020 14:40 77.1 % 20.642 -64.858 2.723 0 0
07-06-2020 14:30 67.3 % 22.018 -57.765 3.447 0 0
07-06-2020 14:20 67.5 % 22.576 -59.052 2.223 0 0
07-06-2020 14:10 69.5 % 23.186 -65.223 4.729 0 0
07-06-2020 14:00 72.7 % 21.902 -64.441 3.671 0 0
07-06-2020 13:50 72.2 % 22.193 -68.598 1.895 0 0
07-06-2020 13:40 72.2 % 22.351 -71.639 4.148 0 0

I dati sono presentati in modo automatico a scopo informativo. In seguito a verifica i dati possono subire modifiche o essere invalidati e non riportati negli archivi definitivi.